Time;durP1;ratioP1;P1;durP2;ratioP2;P2;SDS_P1;SDS_P2;PMS_P1;PMS_P2;Temp;Humidity;BMP_temperature;BMP_pressure;BME280_temperature;BME280_humidity;BME280_pressure;Samples;Min_cycle;Max_cycle;Signal;HPM_P1;HPM_P2
2023/03/30 00:01:16;;;;;;;5.30;1.20;;;13.10;99.90;;;;;;4998128;28;20096;-72
2023/03/30 00:03:43;;;;;;;2.17;0.90;;;13.10;99.90;;;;;;4997780;28;20142;-72
2023/03/30 00:06:19;;;;;;;2.92;1.13;;;13.20;99.90;;;;;;5002034;28;20899;-72
2023/03/30 00:08:45;;;;;;;7.25;1.25;;;13.20;99.90;;;;;;5001787;28;20105;-72
2023/03/30 00:11:14;;;;;;;2.78;0.98;;;13.10;99.90;;;;;;4995400;28;20169;-72
2023/03/30 00:13:40;;;;;;;4.63;1.40;;;13.10;99.90;;;;;;5015861;28;20107;-72
2023/03/30 00:16:09;;;;;;;2.58;1.10;;;13.00;99.90;;;;;;5002539;28;20061;-72
2023/03/30 00:18:35;;;;;;;3.67;1.17;;;13.00;99.90;;;;;;4997974;28;20034;-73
2023/03/30 00:21:02;;;;;;;2.85;1.25;;;13.00;99.90;;;;;;4999803;28;20774;-72
2023/03/30 00:23:28;;;;;;;2.30;1.05;;;13.00;99.90;;;;;;5000184;28;20507;-72
2023/03/30 00:25:55;;;;;;;3.15;1.08;;;13.00;99.90;;;;;;5000236;28;20026;-72
2023/03/30 00:28:21;;;;;;;4.20;1.13;;;13.00;99.90;;;;;;4997997;28;20038;-72
2023/03/30 00:30:47;;;;;;;7.20;2.03;;;13.00;99.90;;;;;;5001135;28;20046;-72
2023/03/30 00:33:13;;;;;;;2.90;1.02;;;13.00;99.90;;;;;;4998704;28;20118;-73
2023/03/30 00:35:39;;;;;;;5.80;1.27;;;12.90;99.90;;;;;;5002631;28;20116;-72
2023/03/30 00:38:05;;;;;;;11.25;1.20;;;12.90;99.90;;;;;;5001710;28;20050;-71
2023/03/30 00:40:33;;;;;;;6.50;1.20;;;13.00;99.90;;;;;;4998918;28;20064;-72
2023/03/30 00:43:04;;;;;;;4.00;1.60;;;12.90;99.90;;;;;;4996816;28;20030;-72
2023/03/30 00:45:31;;;;;;;3.22;1.08;;;12.90;99.90;;;;;;5012053;28;20486;-72
2023/03/30 00:48:19;;;;;;;5.25;1.33;;;12.90;99.90;;;;;;4998843;28;20061;-72
2023/03/30 00:50:58;;;;;;;2.63;1.10;;;12.90;99.90;;;;;;5000429;28;20034;-76
2023/03/30 00:53:28;;;;;;;5.72;1.00;;;12.80;99.90;;;;;;4996379;28;20105;-72
2023/03/30 00:55:56;;;;;;;6.65;1.20;;;12.80;99.90;;;;;;5001866;28;20030;-73
2023/03/30 00:58:23;;;;;;;3.65;1.30;;;12.70;99.90;;;;;;4998821;28;20042;-71
2023/03/30 01:00:49;;;;;;;2.67;1.13;;;12.60;99.90;;;;;;5000322;28;20386;-72
2023/03/30 01:03:29;;;;;;;5.05;1.02;;;12.60;99.90;;;;;;4998176;28;20513;-72
2023/03/30 01:05:56;;;;;;;2.75;0.82;;;12.60;99.90;;;;;;4999479;28;20057;-72
2023/03/30 01:08:26;;;;;;;7.22;2.03;;;12.60;99.90;;;;;;5000312;28;20663;-71
2023/03/30 01:10:51;;;;;;;2.63;0.98;;;12.60;99.90;;;;;;4997457;28;20487;-72
2023/03/30 01:13:18;;;;;;;4.32;1.85;;;12.60;99.90;;;;;;4997937;28;20035;-73
2023/03/30 01:16:17;;;;;;;3.63;1.20;;;12.60;99.90;;;;;;5001099;28;20030;-72
2023/03/30 01:19:22;;;;;;;3.53;0.90;;;12.50;99.90;;;;;;5000070;28;20112;-72
2023/03/30 01:22:07;;;;;;;4.20;1.27;;;12.50;99.90;;;;;;5007164;28;20034;-71
2023/03/30 01:24:52;;;;;;;2.60;0.85;;;12.50;99.90;;;;;;4999544;28;20045;-72
2023/03/30 01:27:45;;;;;;;2.65;1.10;;;12.60;99.90;;;;;;4998421;28;20062;-72
2023/03/30 01:30:25;;;;;;;2.65;1.00;;;12.60;99.90;;;;;;4996850;28;20030;-71
2023/03/30 01:33:32;;;;;;;2.42;0.60;;;12.50;99.90;;;;;;5006136;28;20177;-72
2023/03/30 01:36:06;;;;;;;4.43;0.93;;;12.50;99.90;;;;;;4994789;28;20640;-71
2023/03/30 01:38:43;;;;;;;5.30;0.90;;;12.50;99.90;;;;;;4999436;28;20042;-73
2023/03/30 01:41:30;;;;;;;1.52;0.60;;;12.50;99.90;;;;;;5021904;28;20049;-72
2023/03/30 01:44:03;;;;;;;2.17;0.88;;;12.50;99.90;;;;;;4996999;28;20092;-71
2023/03/30 01:46:39;;;;;;;3.30;0.60;;;12.60;99.90;;;;;;4999028;28;20085;-72
2023/03/30 01:49:10;;;;;;;2.80;0.80;;;12.60;99.90;;;;;;4999940;28;20117;-73
2023/03/30 01:51:44;;;;;;;1.80;0.75;;;12.50;99.90;;;;;;4996816;28;20045;-72
2023/03/30 01:54:16;;;;;;;3.78;0.95;;;12.60;99.90;;;;;;4997040;28;20082;-72
2023/03/30 01:56:55;;;;;;;3.70;0.95;;;12.60;99.90;;;;;;4995053;28;20073;-72
2023/03/30 01:59:48;;;;;;;1.65;0.75;;;12.50;99.90;;;;;;5007496;28;20141;-72
2023/03/30 02:02:16;;;;;;;2.25;0.80;;;12.50;99.90;;;;;;4992841;28;20046;-72
2023/03/30 02:04:45;;;;;;;3.15;0.75;;;12.50;99.90;;;;;;4997647;28;20034;-71
2023/03/30 02:07:16;;;;;;;3.38;1.27;;;12.60;99.90;;;;;;5001720;28;20124;-72
2023/03/30 02:09:44;;;;;;;3.45;0.85;;;12.50;99.90;;;;;;5002601;28;20034;-72
2023/03/30 02:12:11;;;;;;;3.55;1.05;;;12.50;99.90;;;;;;4995767;28;20901;-72
2023/03/30 02:14:39;;;;;;;3.88;0.85;;;12.30;99.90;;;;;;5002745;28;20053;-72
2023/03/30 02:17:12;;;;;;;4.72;1.02;;;12.30;99.90;;;;;;5000266;28;20099;-72
2023/03/30 02:19:38;;;;;;;1.75;0.85;;;12.30;99.90;;;;;;4998161;28;20185;-71
2023/03/30 02:22:05;;;;;;;2.60;1.13;;;12.20;99.90;;;;;;4999623;28;20120;-72
2023/03/30 02:24:32;;;;;;;3.67;0.93;;;12.20;99.90;;;;;;5001680;28;20060;-72
2023/03/30 02:27:00;;;;;;;2.58;1.35;;;12.20;99.90;;;;;;5000575;28;20033;-71
2023/03/30 02:29:27;;;;;;;3.20;0.95;;;12.20;99.90;;;;;;4998359;28;20121;-73
2023/03/30 02:31:56;;;;;;;6.15;0.90;;;12.20;99.90;;;;;;4997503;28;20602;-72
2023/03/30 02:34:43;;;;;;;6.40;1.02;;;12.30;99.90;;;;;;4999226;28;20045;-72
2023/03/30 02:37:47;;;;;;;3.30;0.88;;;12.30;99.90;;;;;;4996913;28;20038;-70
2023/03/30 02:40:12;;;;;;;3.47;0.75;;;12.40;99.90;;;;;;4999773;28;20096;-72
2023/03/30 02:43:13;;;;;;;3.88;0.82;;;12.50;99.90;;;;;;5002720;28;20511;-72
2023/03/30 02:46:06;;;;;;;3.42;0.65;;;12.50;99.90;;;;;;4994345;28;20038;-71
2023/03/30 02:49:05;;;;;;;3.38;1.00;;;12.60;99.90;;;;;;4999177;28;20041;-71
2023/03/30 02:51:48;;;;;;;2.38;0.77;;;12.60;99.90;;;;;;4996766;28;20046;-72
2023/03/30 02:54:35;;;;;;;2.75;0.88;;;12.60;99.90;;;;;;4993857;28;20046;-72
2023/03/30 02:57:25;;;;;;;3.95;0.60;;;12.70;99.90;;;;;;4998851;28;20133;-73
2023/03/30 03:00:11;;;;;;;6.57;1.02;;;12.70;99.90;;;;;;5001540;28;20054;-73
2023/03/30 03:02:42;;;;;;;4.10;0.93;;;12.70;99.90;;;;;;5006528;28;20476;-73
2023/03/30 03:05:11;;;;;;;3.08;0.70;;;12.70;99.90;;;;;;4996219;28;20037;-72
2023/03/30 03:07:37;;;;;;;2.20;0.80;;;12.70;99.90;;;;;;5006528;28;20042;-71
2023/03/30 03:10:05;;;;;;;2.40;0.88;;;12.60;99.90;;;;;;4995163;28;20116;-71
2023/03/30 03:12:31;;;;;;;4.15;1.02;;;12.60;99.90;;;;;;5000372;28;20464;-72
2023/03/30 03:14:56;;;;;;;1.98;0.63;;;12.60;99.90;;;;;;4999891;28;20042;-71
2023/03/30 03:17:22;;;;;;;3.50;1.20;;;12.60;99.90;;;;;;4996035;28;20518;-72
2023/03/30 03:19:48;;;;;;;3.00;0.65;;;12.60;99.90;;;;;;4997511;28;20479;-72
2023/03/30 03:22:14;;;;;;;3.05;0.50;;;12.60;99.90;;;;;;4997166;28;20105;-72
2023/03/30 03:24:40;;;;;;;4.72;0.75;;;12.60;99.90;;;;;;5004969;28;20414;-71
2023/03/30 03:27:06;;;;;;;3.28;1.42;;;12.70;99.90;;;;;;4994584;28;20077;-71
2023/03/30 03:29:31;;;;;;;2.55;0.70;;;12.60;99.90;;;;;;5010685;28;20042;-73
2023/03/30 03:31:57;;;;;;;4.65;0.98;;;12.70;99.90;;;;;;4994615;28;20033;-72
2023/03/30 03:34:25;;;;;;;6.38;1.77;;;12.70;99.90;;;;;;5002399;28;20525;-71
2023/03/30 03:36:52;;;;;;;4.55;0.70;;;12.70;99.90;;;;;;4995979;28;20033;-72
2023/03/30 03:39:18;;;;;;;4.05;1.00;;;12.70;99.90;;;;;;4997563;28;20037;-72
2023/03/30 03:41:43;;;;;;;3.97;0.43;;;12.70;99.90;;;;;;4997084;28;20107;-73
2023/03/30 03:44:09;;;;;;;3.38;0.60;;;12.80;99.90;;;;;;4992525;28;20038;-73
2023/03/30 03:46:35;;;;;;;2.72;0.55;;;12.70;99.90;;;;;;4996221;28;20520;-73
2023/03/30 03:49:00;;;;;;;3.92;0.70;;;12.70;99.90;;;;;;4998214;28;20061;-71
2023/03/30 03:51:28;;;;;;;7.70;0.68;;;12.70;99.90;;;;;;4995235;28;20033;-72
2023/03/30 03:53:53;;;;;;;4.40;0.90;;;12.80;99.90;;;;;;5000859;28;20715;-71
2023/03/30 03:56:19;;;;;;;1.48;0.50;;;12.80;99.90;;;;;;4996742;28;20031;-72
2023/03/30 03:58:45;;;;;;;2.33;0.55;;;12.80;99.90;;;;;;4994567;28;20034;-72
2023/03/30 04:01:13;;;;;;;4.05;0.63;;;12.90;99.90;;;;;;4999624;28;20042;-71
2023/03/30 04:03:39;;;;;;;6.28;0.88;;;12.90;99.90;;;;;;4998759;28;20041;-72
2023/03/30 04:06:05;;;;;;;2.17;0.60;;;12.90;99.90;;;;;;5002188;28;20029;-71
2023/03/30 04:08:31;;;;;;;4.00;0.30;;;13.00;99.90;;;;;;5026275;28;20104;-71
2023/03/30 04:11:06;;;;;;;2.95;0.77;;;12.90;99.90;;;;;;5003004;28;20121;-73
2023/03/30 04:13:33;;;;;;;2.78;0.80;;;13.00;99.90;;;;;;5001493;28;20050;-73
2023/03/30 04:15:58;;;;;;;3.17;0.98;;;13.00;99.90;;;;;;4999842;28;20030;-72
2023/03/30 04:18:30;;;;;;;6.72;0.80;;;13.00;99.90;;;;;;5004229;28;20045;-72
2023/03/30 04:20:58;;;;;;;2.15;0.70;;;13.10;99.90;;;;;;5002557;28;20029;-72
2023/03/30 04:23:24;;;;;;;4.78;0.88;;;13.00;99.90;;;;;;5003472;28;20554;-72
2023/03/30 04:25:50;;;;;;;6.78;1.20;;;13.10;99.90;;;;;;5002533;28;20029;-71
2023/03/30 04:28:20;;;;;;;4.80;0.80;;;13.10;99.90;;;;;;5002999;28;20034;-71
2023/03/30 04:30:46;;;;;;;3.70;1.33;;;13.10;99.90;;;;;;5003764;28;20068;-72
2023/03/30 04:33:13;;;;;;;3.50;0.50;;;13.00;99.90;;;;;;5003433;28;20105;-72
2023/03/30 04:35:39;;;;;;;6.43;1.00;;;12.90;99.90;;;;;;4999099;28;20042;-72
2023/03/30 04:38:05;;;;;;;9.38;1.35;;;12.80;99.90;;;;;;5002606;28;20052;-72
2023/03/30 04:40:30;;;;;;;3.80;0.68;;;12.70;99.90;;;;;;5000929;28;20036;-72
2023/03/30 04:43:01;;;;;;;9.98;1.40;;;12.60;99.90;;;;;;5003415;28;20040;-72
2023/03/30 04:45:28;;;;;;;4.85;1.27;;;12.50;99.90;;;;;;5002421;28;20038;-72
2023/03/30 04:47:53;;;;;;;9.07;1.02;;;12.50;99.90;;;;;;5002947;28;20030;-72
2023/03/30 04:50:19;;;;;;;10.63;1.30;;;12.50;99.90;;;;;;5004489;28;20064;-71
2023/03/30 04:52:45;;;;;;;5.68;1.13;;;12.40;99.90;;;;;;5001959;28;20443;-71
2023/03/30 04:55:10;;;;;;;8.38;1.42;;;12.30;99.90;;;;;;5004747;28;20045;-71
2023/03/30 04:57:36;;;;;;;5.38;1.73;;;12.20;99.90;;;;;;5012778;28;20494;-72
2023/03/30 05:00:06;;;;;;;11.57;1.70;;;12.20;99.90;;;;;;5005334;28;20103;-72
2023/03/30 05:02:32;;;;;;;5.43;1.15;;;12.10;99.90;;;;;;5002589;28;20046;-72
2023/03/30 05:04:57;;;;;;;9.32;1.10;;;12.10;99.90;;;;;;4997213;28;20040;-72
2023/03/30 05:07:23;;;;;;;10.48;1.52;;;12.00;99.90;;;;;;5001552;28;20150;-70
2023/03/30 05:09:48;;;;;;;6.97;1.10;;;12.00;99.90;;;;;;4999940;28;20034;-74
2023/03/30 05:12:15;;;;;;;10.60;1.50;;;12.00;99.90;;;;;;4998652;28;20486;-73
2023/03/30 05:14:41;;;;;;;8.48;1.25;;;11.90;99.90;;;;;;4997115;28;20030;-72
2023/03/30 05:17:07;;;;;;;8.95;1.40;;;11.90;99.90;;;;;;4999636;28;20034;-72
2023/03/30 05:19:33;;;;;;;11.63;1.67;;;11.80;99.90;;;;;;4998349;28;20124;-72
2023/03/30 05:21:59;;;;;;;18.13;2.13;;;11.80;99.90;;;;;;4998284;28;20125;-73
2023/03/30 05:24:25;;;;;;;14.35;2.45;;;11.70;99.90;;;;;;4996296;28;20046;-71
2023/03/30 05:26:51;;;;;;;16.27;1.73;;;11.70;99.90;;;;;;5001804;28;20042;-73
2023/03/30 05:29:16;;;;;;;10.45;1.83;;;11.70;99.90;;;;;;5000751;28;20545;-72
2023/03/30 05:31:42;;;;;;;9.48;1.20;;;11.60;99.90;;;;;;5003251;28;20038;-72
2023/03/30 05:34:07;;;;;;;14.00;2.22;;;11.60;99.90;;;;;;4997654;28;20151;-73
2023/03/30 05:36:34;;;;;;;14.35;1.80;;;11.50;99.90;;;;;;4994923;28;20773;-74
2023/03/30 05:39:00;;;;;;;11.10;2.00;;;11.60;99.90;;;;;;5005108;28;20034;-73
2023/03/30 05:41:27;;;;;;;15.75;1.55;;;11.50;99.90;;;;;;5003762;28;20383;-72
2023/03/30 05:43:53;;;;;;;12.90;1.80;;;11.50;99.90;;;;;;5002792;28;20038;-73
2023/03/30 05:46:18;;;;;;;16.15;1.75;;;11.50;99.90;;;;;;5005943;28;20095;-74
2023/03/30 05:48:44;;;;;;;13.25;2.25;;;11.50;99.90;;;;;;5005567;28;20030;-75
2023/03/30 05:51:10;;;;;;;11.05;2.30;;;11.50;99.90;;;;;;5008430;28;20381;-71
2023/03/30 05:53:36;;;;;;;7.78;1.48;;;11.50;99.90;;;;;;5006326;28;20106;-72
2023/03/30 05:56:02;;;;;;;8.43;1.70;;;11.50;99.90;;;;;;5005059;28;20026;-72
2023/03/30 05:58:27;;;;;;;11.20;2.10;;;11.50;99.90;;;;;;5005663;28;20048;-74
2023/03/30 06:00:56;;;;;;;10.00;1.10;;;11.60;99.90;;;;;;5002987;28;20840;-72
2023/03/30 06:03:22;;;;;;;10.23;2.25;;;11.60;99.90;;;;;;5003883;28;20037;-73
2023/03/30 06:05:47;;;;;;;10.05;1.40;;;11.70;99.90;;;;;;5004541;28;20037;-71
2023/03/30 06:08:14;;;;;;;12.73;2.45;;;11.80;99.90;;;;;;5006086;28;20021;-74
2023/03/30 06:10:39;;;;;;;15.85;3.53;;;12.00;99.90;;;;;;5001999;28;20034;-71
2023/03/30 06:13:05;;;;;;;12.55;1.55;;;12.20;99.90;;;;;;5007166;28;20111;-71
2023/03/30 06:15:31;;;;;;;16.10;2.30;;;12.50;99.90;;;;;;5003039;28;20050;-73
2023/03/30 06:17:58;;;;;;;9.70;1.65;;;12.70;99.90;;;;;;5007310;28;20494;-71
2023/03/30 06:20:24;;;;;;;14.95;2.50;;;12.80;99.90;;;;;;5004481;28;20049;-74
2023/03/30 06:22:51;;;;;;;13.05;1.55;;;13.00;99.90;;;;;;5002028;28;20077;-73
2023/03/30 06:25:20;;;;;;;13.32;1.58;;;12.90;99.90;;;;;;5001618;28;20030;-73
2023/03/30 06:27:46;;;;;;;9.82;1.45;;;12.90;99.90;;;;;;5005054;28;20033;-74
2023/03/30 06:30:13;;;;;;;8.10;1.52;;;12.90;99.90;;;;;;5006596;28;20046;-71
2023/03/30 06:32:38;;;;;;;7.82;1.58;;;12.90;99.90;;;;;;5006266;28;20045;-73
2023/03/30 06:35:04;;;;;;;13.55;1.85;;;12.90;99.90;;;;;;5004010;28;20052;-72
2023/03/30 06:37:31;;;;;;;10.95;1.55;;;12.90;99.90;;;;;;5001964;28;20069;-72
2023/03/30 06:39:57;;;;;;;19.35;2.60;;;12.80;99.90;;;;;;5004076;28;20120;-72
2023/03/30 06:42:26;;;;;;;22.02;2.78;;;12.70;99.90;;;;;;5003937;28;20128;-71
2023/03/30 06:44:51;;;;;;;12.63;1.33;;;12.70;99.90;;;;;;5001764;28;20057;-73
2023/03/30 06:47:18;;;;;;;11.32;2.20;;;12.70;99.90;;;;;;5002134;28;20068;-73
2023/03/30 06:49:43;;;;;;;10.93;2.78;;;12.70;99.90;;;;;;5005205;28;20117;-73
2023/03/30 06:52:10;;;;;;;16.75;1.63;;;12.60;99.90;;;;;;5004087;28;20042;-74
2023/03/30 06:54:35;;;;;;;9.07;2.47;;;12.60;99.90;;;;;;5004779;28;20046;-72
2023/03/30 06:57:01;;;;;;;18.85;2.05;;;12.60;99.90;;;;;;5002082;28;20072;-72
2023/03/30 06:59:27;;;;;;;12.60;2.42;;;12.50;99.90;;;;;;5003716;28;20490;-73
2023/03/30 07:01:55;;;;;;;21.02;2.10;;;12.50;99.90;;;;;;5003032;28;20414;-72
2023/03/30 07:04:21;;;;;;;15.05;2.42;;;12.50;99.90;;;;;;5000564;28;20038;-72
2023/03/30 07:06:47;;;;;;;11.75;2.30;;;12.50;99.90;;;;;;5003956;28;20037;-72
2023/03/30 07:09:12;;;;;;;15.10;2.28;;;12.50;99.90;;;;;;5003776;28;20038;-72
2023/03/30 07:11:38;;;;;;;12.93;2.05;;;12.50;99.90;;;;;;5004544;28;20038;-74
2023/03/30 07:14:04;;;;;;;11.65;2.17;;;12.50;99.90;;;;;;5001324;28;20061;-72
2023/03/30 07:16:29;;;;;;;17.20;2.78;;;12.60;99.90;;;;;;5000618;28;20038;-73
2023/03/30 07:18:55;;;;;;;15.15;3.08;;;12.70;99.90;;;;;;5003443;28;20038;-74
2023/03/30 07:21:21;;;;;;;15.48;3.75;;;12.80;99.90;;;;;;5001601;28;20088;-75
2023/03/30 07:23:46;;;;;;;11.98;1.80;;;12.90;99.90;;;;;;5001320;28;20041;-71
2023/03/30 07:26:12;;;;;;;13.18;1.65;;;12.90;99.90;;;;;;5002924;28;20026;-72
2023/03/30 07:28:39;;;;;;;14.70;2.08;;;12.90;99.90;;;;;;5002096;28;20053;-71
2023/03/30 07:31:06;;;;;;;16.95;2.63;;;13.00;99.90;;;;;;5002446;28;20117;-72
2023/03/30 07:33:32;;;;;;;20.58;2.97;;;13.00;99.90;;;;;;5002893;28;20034;-73
2023/03/30 07:35:57;;;;;;;11.73;2.70;;;13.10;99.90;;;;;;5003341;28;20030;-72
2023/03/30 07:38:23;;;;;;;12.88;1.63;;;13.20;99.90;;;;;;5002803;28;20084;-72
2023/03/30 07:40:49;;;;;;;11.35;2.25;;;13.30;99.90;;;;;;5001560;28;20513;-72
2023/03/30 07:43:15;;;;;;;14.25;2.53;;;13.60;99.90;;;;;;5002565;28;20594;-72
2023/03/30 07:45:40;;;;;;;13.25;1.88;;;13.70;99.90;;;;;;5003427;28;20038;-72
2023/03/30 07:48:06;;;;;;;14.70;1.60;;;13.70;99.90;;;;;;5005648;28;20079;-72
2023/03/30 07:50:32;;;;;;;12.63;2.08;;;13.90;99.90;;;;;;5002974;28;20201;-73
2023/03/30 07:52:57;;;;;;;10.70;1.45;;;14.00;99.90;;;;;;5001493;28;20029;-71
2023/03/30 07:55:23;;;;;;;16.55;1.90;;;14.20;99.90;;;;;;5002528;28;20038;-74
2023/03/30 07:57:48;;;;;;;16.45;2.28;;;14.20;99.90;;;;;;5003324;28;20037;-71
2023/03/30 08:00:14;;;;;;;12.15;2.45;;;14.20;99.90;;;;;;5005512;28;20517;-71
2023/03/30 08:02:41;;;;;;;12.27;2.35;;;14.10;99.90;;;;;;5002376;28;20099;-74
2023/03/30 08:05:07;;;;;;;10.85;2.17;;;14.10;99.90;;;;;;5002446;28;20060;-74
2023/03/30 08:07:34;;;;;;;18.13;2.85;;;14.20;99.90;;;;;;5004267;28;20486;-71
2023/03/30 08:09:59;;;;;;;10.18;2.20;;;14.20;99.90;;;;;;5001455;28;20256;-74
2023/03/30 08:12:26;;;;;;;17.67;2.58;;;14.30;99.90;;;;;;5001097;28;20804;-72
2023/03/30 08:14:51;;;;;;;16.83;2.67;;;14.30;99.90;;;;;;5002834;28;20072;-71
2023/03/30 08:17:18;;;;;;;9.43;1.88;;;14.40;99.90;;;;;;5000958;28;20111;-72
2023/03/30 08:19:43;;;;;;;12.82;2.78;;;14.40;99.90;;;;;;5001575;28;20034;-72
2023/03/30 08:22:09;;;;;;;12.27;2.45;;;14.30;99.90;;;;;;5001591;28;20048;-74
2023/03/30 08:24:35;;;;;;;11.57;2.35;;;14.30;99.90;;;;;;5002051;28;20491;-74
2023/03/30 08:27:00;;;;;;;13.48;2.45;;;14.20;99.90;;;;;;5002023;28;20100;-72
2023/03/30 08:29:26;;;;;;;14.98;2.70;;;14.30;99.90;;;;;;5001119;28;20049;-73
2023/03/30 08:31:51;;;;;;;16.63;2.10;;;14.50;99.90;;;;;;5001142;28;20030;-71
2023/03/30 08:34:18;;;;;;;13.65;2.15;;;14.60;99.90;;;;;;5001733;28;20161;-72
2023/03/30 08:36:43;;;;;;;17.90;3.03;;;14.70;99.90;;;;;;5002034;28;20447;-73
2023/03/30 08:39:09;;;;;;;10.77;1.83;;;14.70;99.90;;;;;;5003717;28;20072;-71
2023/03/30 08:42:20;;;;;;;13.57;2.95;;;14.80;99.90;;;;;;5000938;28;20064;-71
2023/03/30 08:44:50;;;;;;;12.70;2.33;;;14.90;99.90;;;;;;5002254;28;20161;-71
2023/03/30 08:47:29;;;;;;;19.23;2.45;;;15.00;99.90;;;;;;5001964;28;20052;-73
2023/03/30 08:50:15;;;;;;;13.75;2.85;;;15.00;99.90;;;;;;5004587;28;20030;-72
2023/03/30 08:52:41;;;;;;;9.70;1.75;;;14.90;99.90;;;;;;5000048;28;20037;-72
2023/03/30 08:55:23;;;;;;;13.70;2.13;;;14.80;99.90;;;;;;5001768;28;20034;-71
2023/03/30 08:58:00;;;;;;;11.75;2.55;;;14.70;99.90;;;;;;5002445;28;20037;-72
2023/03/30 09:00:38;;;;;;;18.55;2.40;;;14.60;99.90;;;;;;4999339;28;20034;-72
2023/03/30 09:03:16;;;;;;;11.10;2.17;;;14.70;99.90;;;;;;4999478;28;20730;-71
2023/03/30 09:05:54;;;;;;;18.67;2.35;;;14.70;99.90;;;;;;5000097;28;20041;-71
2023/03/30 09:08:27;;;;;;;12.35;1.70;;;14.80;99.90;;;;;;5001169;28;22718;-71
2023/03/30 09:10:58;;;;;;;16.33;2.90;;;14.80;99.90;;;;;;5001968;28;20030;-72
2023/03/30 09:13:28;;;;;;;21.35;3.33;;;14.80;99.90;;;;;;5001698;28;20556;-71
2023/03/30 09:16:10;;;;;;;21.92;3.15;;;14.80;99.90;;;;;;5004492;28;20041;-75
2023/03/30 09:18:40;;;;;;;13.63;2.13;;;15.00;99.90;;;;;;5020633;28;20034;-75
2023/03/30 09:21:10;;;;;;;17.83;2.40;;;15.00;99.90;;;;;;5005786;28;20108;-72
2023/03/30 09:23:38;;;;;;;19.80;3.80;;;15.20;99.90;;;;;;5004012;28;20042;-74
2023/03/30 09:26:07;;;;;;;14.90;2.53;;;15.20;99.90;;;;;;5005677;28;20022;-72
2023/03/30 09:29:08;;;;;;;23.38;3.38;;;15.30;99.90;;;;;;5005627;28;20124;-73
2023/03/30 09:31:44;;;;;;;21.58;2.42;;;15.40;99.90;;;;;;5003495;28;20076;-72
2023/03/30 09:34:25;;;;;;;13.07;2.80;;;15.40;99.90;;;;;;5000906;28;20522;-71
2023/03/30 09:37:24;;;;;;;13.50;2.20;;;15.30;99.90;;;;;;5003894;28;20041;-74
2023/03/30 09:39:50;;;;;;;13.60;2.17;;;15.30;99.90;;;;;;4991164;28;20966;-73
2023/03/30 09:42:32;;;;;;;23.83;2.92;;;15.20;99.90;;;;;;5004951;28;20026;-71
2023/03/30 09:45:27;;;;;;;15.52;3.25;;;15.10;99.90;;;;;;5020295;28;20026;-71
2023/03/30 09:47:52;;;;;;;18.88;3.45;;;15.20;99.90;;;;;;4996283;28;20103;-73
2023/03/30 09:50:26;;;;;;;17.15;2.40;;;15.50;99.90;;;;;;5020783;28;20034;-71
2023/03/30 09:53:03;;;;;;;18.02;2.42;;;15.80;99.90;;;;;;5006477;28;20042;-72
2023/03/30 09:55:30;;;;;;;17.10;2.00;;;16.10;99.90;;;;;;5004718;28;20042;-71
2023/03/30 09:58:29;;;;;;;10.25;2.30;;;16.20;99.90;;;;;;5002427;28;20128;-75
2023/03/30 10:01:07;;;;;;;13.57;3.40;;;16.20;99.90;;;;;;4980768;28;20128;-71
2023/03/30 10:03:34;;;;;;;12.60;2.75;;;16.30;99.90;;;;;;5002250;28;20920;-74
2023/03/30 10:06:01;;;;;;;26.27;2.85;;;16.20;99.90;;;;;;5003117;28;20045;-74
2023/03/30 10:08:27;;;;;;;18.08;2.35;;;16.00;99.90;;;;;;5005092;28;20042;-72
2023/03/30 10:10:55;;;;;;;17.23;3.60;;;15.90;99.90;;;;;;5000944;28;20034;-75
2023/03/30 10:13:40;;;;;;;18.85;3.38;;;16.10;99.90;;;;;;4999314;28;20092;-72
2023/03/30 10:16:27;;;;;;;15.20;2.25;;;16.20;99.90;;;;;;5002614;28;20037;-72
2023/03/30 10:19:06;;;;;;;16.83;3.33;;;16.20;99.90;;;;;;5001887;28;20034;-74
2023/03/30 10:21:40;;;;;;;12.98;2.50;;;16.10;99.90;;;;;;5001801;28;20188;-72
2023/03/30 10:24:15;;;;;;;18.75;3.00;;;16.10;99.90;;;;;;4999729;28;20112;-71
2023/03/30 10:26:45;;;;;;;14.07;2.72;;;16.10;99.90;;;;;;5000200;28;20046;-72
2023/03/30 10:29:15;;;;;;;14.73;2.38;;;16.00;99.90;;;;;;5003620;28;20034;-72
2023/03/30 10:31:44;;;;;;;16.85;3.30;;;15.90;99.90;;;;;;5009406;28;20045;-73
2023/03/30 10:34:36;;;;;;;18.73;2.47;;;15.90;99.90;;;;;;5005098;28;20034;-72
2023/03/30 10:37:05;;;;;;;16.25;2.30;;;16.10;99.90;;;;;;5001002;28;20049;-72
2023/03/30 10:39:33;;;;;;;22.58;2.13;;;16.40;99.90;;;;;;5001614;28;20498;-74
2023/03/30 10:42:00;;;;;;;14.60;2.47;;;16.60;99.90;;;;;;5004456;28;20516;-73
2023/03/30 10:44:54;;;;;;;16.30;3.00;;;16.60;99.90;;;;;;5003722;28;20022;-71
2023/03/30 10:47:49;;;;;;;19.60;2.80;;;16.60;99.90;;;;;;4999372;28;20671;-71
2023/03/30 10:50:31;;;;;;;17.08;2.92;;;16.70;99.90;;;;;;5000274;28;20096;-72
2023/03/30 10:53:34;;;;;;;17.13;2.58;;;16.60;99.90;;;;;;5002028;28;20048;-73
2023/03/30 10:56:12;;;;;;;12.85;2.22;;;16.50;99.90;;;;;;5001075;28;20049;-71
2023/03/30 10:59:14;;;;;;;18.70;3.35;;;16.30;99.90;;;;;;5002858;28;20963;-71
2023/03/30 11:02:01;;;;;;;13.30;2.30;;;16.00;99.90;;;;;;5000980;28;20052;-72
2023/03/30 11:04:36;;;;;;;13.05;2.38;;;16.00;99.90;;;;;;5017125;28;20034;-72
2023/03/30 11:07:09;;;;;;;13.85;2.53;;;16.00;99.90;;;;;;5001892;28;20036;-73
2023/03/30 11:09:38;;;;;;;17.27;2.20;;;15.90;99.90;;;;;;5000816;28;20486;-73
2023/03/30 11:12:11;;;;;;;9.77;2.15;;;15.80;99.90;;;;;;5002548;28;20479;-72
2023/03/30 11:14:48;;;;;;;15.13;2.20;;;15.80;99.90;;;;;;5000248;28;20038;-72
2023/03/30 11:17:25;;;;;;;18.33;2.88;;;16.00;99.90;;;;;;5002542;28;20072;-73
2023/03/30 11:19:55;;;;;;;15.15;1.92;;;16.10;99.90;;;;;;5002963;28;20117;-72
2023/03/30 11:22:44;;;;;;;13.52;2.10;;;16.20;99.90;;;;;;5001348;28;20034;-72
2023/03/30 11:25:23;;;;;;;12.40;2.60;;;16.40;99.90;;;;;;5001485;28;20490;-75
2023/03/30 11:28:07;;;;;;;17.08;2.90;;;16.70;99.90;;;;;;5002037;28;20049;-73
2023/03/30 11:30:35;;;;;;;11.82;1.92;;;16.70;99.90;;;;;;4998828;28;20433;-73
2023/03/30 11:33:18;;;;;;;20.83;2.38;;;16.80;99.90;;;;;;5002213;28;20116;-72
2023/03/30 11:35:52;;;;;;;17.90;2.25;;;16.70;99.90;;;;;;5001143;28;20502;-72
2023/03/30 11:38:27;;;;;;;13.35;2.15;;;16.60;99.90;;;;;;4999957;28;20041;-73
2023/03/30 11:41:03;;;;;;;13.38;2.95;;;16.60;99.90;;;;;;5000166;28;20457;-71
2023/03/30 11:43:30;;;;;;;12.95;1.98;;;16.50;99.90;;;;;;5000734;28;20032;-74
2023/03/30 11:46:00;;;;;;;15.55;2.55;;;16.50;99.90;;;;;;5001648;28;20034;-71
2023/03/30 11:48:35;;;;;;;14.43;2.63;;;16.50;99.90;;;;;;5001903;28;20036;-71
2023/03/30 11:51:06;;;;;;;11.32;2.08;;;16.50;99.90;;;;;;5000201;28;20132;-72
2023/03/30 11:54:02;;;;;;;14.57;2.38;;;16.50;99.90;;;;;;5001183;28;20042;-72
2023/03/30 11:56:28;;;;;;;16.33;2.22;;;16.40;99.90;;;;;;4979623;28;20038;-71
2023/03/30 11:59:18;;;;;;;16.52;2.35;;;16.30;99.90;;;;;;5002476;28;20104;-74
2023/03/30 12:02:13;;;;;;;19.92;3.55;;;16.10;99.90;;;;;;5000958;28;20487;-72
2023/03/30 12:04:49;;;;;;;15.75;2.53;;;16.10;99.90;;;;;;4996811;28;20491;-71
2023/03/30 12:07:22;;;;;;;14.23;2.55;;;15.90;99.90;;;;;;4999963;28;20026;-72
2023/03/30 12:09:54;;;;;;;13.40;2.75;;;15.80;99.90;;;;;;5001123;28;20057;-73
2023/03/30 12:12:38;;;;;;;16.48;3.10;;;15.80;99.90;;;;;;5004300;28;20045;-72
2023/03/30 12:15:52;;;;;;;13.80;2.83;;;15.90;99.90;;;;;;5014839;28;20111;-71
2023/03/30 12:18:50;;;;;;;22.30;3.17;;;16.00;99.90;;;;;;4998105;28;20541;-71
2023/03/30 12:21:27;;;;;;;13.50;2.40;;;16.10;99.90;;;;;;4990889;28;20117;-72
2023/03/30 12:24:08;;;;;;;12.73;2.70;;;16.40;99.90;;;;;;4998687;28;20033;-72
2023/03/30 12:26:36;;;;;;;25.85;3.72;;;16.60;99.90;;;;;;5000306;28;20499;-71
2023/03/30 12:29:16;;;;;;;18.65;2.53;;;16.70;99.90;;;;;;5003574;28;20597;-72
2023/03/30 12:32:03;;;;;;;13.75;2.75;;;16.70;99.90;;;;;;4999685;28;20497;-72
2023/03/30 12:34:35;;;;;;;26.23;3.17;;;16.80;99.90;;;;;;5017858;28;20050;-71
2023/03/30 12:37:21;;;;;;;18.35;2.58;;;16.80;99.90;;;;;;5001583;28;20042;-72
2023/03/30 12:40:17;;;;;;;10.48;2.55;;;16.90;99.90;;;;;;4998203;28;20030;-72
2023/03/30 12:43:07;;;;;;;19.92;2.42;;;16.90;99.90;;;;;;5000425;28;20037;-71
2023/03/30 12:45:33;;;;;;;17.17;2.43;;;16.70;99.90;;;;;;4999910;28;20490;-71
2023/03/30 12:48:20;;;;;;;16.55;2.40;;;16.30;99.90;;;;;;5001671;28;20049;-71
2023/03/30 12:51:03;;;;;;;24.08;4.07;;;16.10;99.90;;;;;;5016295;28;20115;-73
2023/03/30 12:54:01;;;;;;;17.38;2.17;;;16.00;99.90;;;;;;5003489;28;20494;-73
2023/03/30 12:56:33;;;;;;;15.45;3.33;;;15.80;99.90;;;;;;4999964;28;20042;-73
2023/03/30 12:59:25;;;;;;;19.73;2.08;;;15.80;99.90;;;;;;5005015;28;20029;-72
2023/03/30 13:02:00;;;;;;;23.10;3.38;;;15.70;99.90;;;;;;4999459;28;20073;-72
2023/03/30 13:04:32;;;;;;;15.13;2.60;;;15.50;99.90;;;;;;5004435;28;20050;-71
2023/03/30 13:07:02;;;;;;;17.75;2.70;;;15.40;99.90;;;;;;5001981;28;20029;-72